createdAt,value
2018-07-15T00:00:23.107Z,55.10
2018-07-15T00:01:25.366Z,55.30
2018-07-15T00:02:27.749Z,55.50
2018-07-15T00:04:32.319Z,55.60
2018-07-15T00:05:34.678Z,55.90
2018-07-15T00:06:37.028Z,55.90
2018-07-15T00:07:39.326Z,55.90
2018-07-15T00:08:41.573Z,56.10
2018-07-15T00:09:43.845Z,56.20
2018-07-15T00:10:46.466Z,56.60
2018-07-15T00:11:48.719Z,56.60
2018-07-15T00:12:50.995Z,56.60
2018-07-15T00:13:53.262Z,56.60
2018-07-15T00:14:55.515Z,56.80
2018-07-15T00:15:58.218Z,57.10
2018-07-15T00:18:02.835Z,57.60
2018-07-15T00:19:05.127Z,57.90
2018-07-15T00:20:07.418Z,58.10
2018-07-15T00:21:09.687Z,58.50
2018-07-15T00:22:11.998Z,58.70
2018-07-15T00:23:14.275Z,58.90
2018-07-15T00:24:16.654Z,58.80
2018-07-15T00:25:18.946Z,58.90
2018-07-15T00:26:21.253Z,59.10
2018-07-15T00:27:23.543Z,59.40
2018-07-15T00:28:25.801Z,59.70
2018-07-15T00:29:28.026Z,59.80
2018-07-15T00:30:30.277Z,59.80
2018-07-15T00:31:32.544Z,60.70
2018-07-15T00:32:34.796Z,59.80
2018-07-15T00:33:37.131Z,59.90
2018-07-15T00:34:39.386Z,60.00
2018-07-15T00:35:41.650Z,59.90
2018-07-15T00:36:43.911Z,59.90
2018-07-15T00:38:48.427Z,60.00
2018-07-15T00:39:50.698Z,60.10
2018-07-15T00:41:55.231Z,60.10
2018-07-15T00:42:57.476Z,60.20
2018-07-15T00:43:59.723Z,60.20
2018-07-15T00:45:02.010Z,60.00
2018-07-15T00:46:04.274Z,60.00
2018-07-15T00:47:06.594Z,60.00
2018-07-15T00:48:09.261Z,59.90
2018-07-15T00:49:11.562Z,59.90
2018-07-15T00:50:13.835Z,59.90
2018-07-15T00:51:16.140Z,59.80
2018-07-15T00:52:18.434Z,59.90
2018-07-15T00:53:20.683Z,60.00
2018-07-15T00:54:22.951Z,60.50
2018-07-15T00:55:25.289Z,60.40
2018-07-15T00:56:27.527Z,60.50
2018-07-15T00:57:29.820Z,60.40
2018-07-15T00:58:32.108Z,60.40
2018-07-15T00:59:34.382Z,60.40
2018-07-15T01:00:42.382Z,60.40
2018-07-15T01:01:44.629Z,60.50
2018-07-15T01:02:46.888Z,60.40
2018-07-15T01:03:49.146Z,60.40
2018-07-15T01:04:51.414Z,60.40
2018-07-15T01:05:53.720Z,60.40
2018-07-15T01:06:55.999Z,60.40
2018-07-15T01:07:58.283Z,60.40
2018-07-15T01:09:00.542Z,60.20
2018-07-15T01:11:05.036Z,59.90
2018-07-15T01:12:07.264Z,59.70
2018-07-15T01:13:09.489Z,59.70
2018-07-15T01:14:11.750Z,59.50
2018-07-15T01:15:14.178Z,59.40
2018-07-15T01:16:16.426Z,59.40
2018-07-15T01:17:18.690Z,59.50
2018-07-15T01:18:20.930Z,59.50
2018-07-15T01:19:23.169Z,59.40
2018-07-15T01:20:25.432Z,59.40
2018-07-15T01:21:27.653Z,59.40
2018-07-15T01:22:29.897Z,59.30
2018-07-15T01:23:32.226Z,59.40
2018-07-15T01:24:34.465Z,59.40
2018-07-15T01:25:36.740Z,59.40
2018-07-15T01:26:38.975Z,59.30
2018-07-15T01:27:41.196Z,59.30
2018-07-15T01:28:43.437Z,59.30
2018-07-15T01:29:45.983Z,59.30
2018-07-15T01:30:48.235Z,59.40
2018-07-15T01:31:50.486Z,59.10
2018-07-15T01:32:52.763Z,59.10
2018-07-15T01:33:55.093Z,58.90
2018-07-15T01:34:57.343Z,59.00
2018-07-15T01:35:59.596Z,58.90
2018-07-15T01:37:01.862Z,58.90
2018-07-15T01:39:06.428Z,59.60
2018-07-15T01:40:08.682Z,59.50
2018-07-15T01:41:10.899Z,59.50
2018-07-15T01:42:20.038Z,59.80
2018-07-15T01:43:22.275Z,60.00
2018-07-15T01:44:31.363Z,60.00
2018-07-15T01:45:33.864Z,60.00
2018-07-15T01:46:36.107Z,59.90
2018-07-15T01:47:38.310Z,60.50
2018-07-15T01:48:40.557Z,60.50
2018-07-15T01:49:42.792Z,60.40
2018-07-15T01:51:47.335Z,60.60
2018-07-15T01:52:49.553Z,60.70
2018-07-15T01:53:58.681Z,60.90
2018-07-15T01:55:00.932Z,61.00
2018-07-15T01:56:03.406Z,61.70
2018-07-15T01:57:05.640Z,61.00
2018-07-15T01:58:07.869Z,60.90
2018-07-15T01:59:10.094Z,61.00
2018-07-15T02:00:12.357Z,61.00
2018-07-15T02:01:14.599Z,60.90
2018-07-15T02:02:16.842Z,61.00
2018-07-15T02:03:19.097Z,61.10
2018-07-15T02:04:21.341Z,61.00
2018-07-15T02:06:25.921Z,61.00
2018-07-15T02:07:28.134Z,60.80
2018-07-15T02:08:30.370Z,60.90
2018-07-15T02:09:32.603Z,60.90
2018-07-15T02:11:37.085Z,61.20
2018-07-15T02:12:39.330Z,61.10
2018-07-15T02:13:41.557Z,61.40
2018-07-15T02:14:43.834Z,61.20
2018-07-15T02:15:46.091Z,61.10
2018-07-15T02:16:48.444Z,61.30
2018-07-15T02:17:50.693Z,61.30
2018-07-15T02:18:52.953Z,61.30
2018-07-15T02:20:57.426Z,61.30
2018-07-15T02:21:59.661Z,61.20
2018-07-15T02:23:01.938Z,61.30
2018-07-15T02:24:04.243Z,61.40
2018-07-15T02:25:07.148Z,61.40
2018-07-15T02:26:09.369Z,60.90
2018-07-15T02:27:11.671Z,60.70
2018-07-15T02:28:13.902Z,60.50
2018-07-15T02:30:18.430Z,60.80
2018-07-15T02:31:20.683Z,60.90
2018-07-15T02:32:22.914Z,61.10
2018-07-15T02:33:25.137Z,61.10
2018-07-15T02:34:27.391Z,61.20
2018-07-15T02:36:31.951Z,60.90
2018-07-15T02:37:34.199Z,61.10
2018-07-15T02:38:36.457Z,61.10
2018-07-15T02:39:38.705Z,61.00
2018-07-15T02:40:40.963Z,61.00
2018-07-15T02:41:43.194Z,61.20
2018-07-15T02:42:45.686Z,61.20
2018-07-15T02:43:47.935Z,61.10
2018-07-15T02:44:50.191Z,61.00
2018-07-15T02:45:52.422Z,61.20
2018-07-15T02:46:54.668Z,61.10
2018-07-15T02:47:56.890Z,61.00
2018-07-15T02:48:59.135Z,61.20
2018-07-15T02:50:01.377Z,60.80
2018-07-15T02:51:03.647Z,60.70
2018-07-15T02:52:05.964Z,60.50
2018-07-15T02:53:08.199Z,61.10
2018-07-15T02:54:10.444Z,60.80
2018-07-15T02:55:12.713Z,60.80
2018-07-15T02:56:14.938Z,60.80
2018-07-15T02:57:17.179Z,60.90
2018-07-15T02:58:19.430Z,60.90
2018-07-15T02:59:21.688Z,60.60
2018-07-15T03:01:30.055Z,60.70
2018-07-15T03:02:32.296Z,61.10
2018-07-15T03:03:34.520Z,61.00
2018-07-15T03:05:39.001Z,61.20
2018-07-15T03:06:41.235Z,61.20
2018-07-15T03:07:43.530Z,61.20
2018-07-15T03:08:45.702Z,61.20
2018-07-15T03:09:47.926Z,61.60
2018-07-15T03:10:50.187Z,61.50
2018-07-15T03:11:52.481Z,61.60
2018-07-15T03:12:54.733Z,61.60
2018-07-15T03:13:56.969Z,61.50
2018-07-15T03:14:59.223Z,61.70
2018-07-15T03:16:01.491Z,61.50
2018-07-15T03:17:03.743Z,61.50
2018-07-15T03:18:06.043Z,61.60
2018-07-15T03:20:10.666Z,61.50
2018-07-15T03:21:12.943Z,61.30
2018-07-15T03:22:15.187Z,61.40
2018-07-15T03:24:19.730Z,61.40
2018-07-15T03:25:21.992Z,61.60
2018-07-15T03:27:26.476Z,61.30
2018-07-15T03:28:28.721Z,61.30
2018-07-15T03:29:30.954Z,61.50
2018-07-15T03:30:33.191Z,61.60
2018-07-15T03:32:37.742Z,61.90
2018-07-15T03:33:39.971Z,62.50
2018-07-15T03:34:42.185Z,61.60
2018-07-15T03:35:44.417Z,61.70
2018-07-15T03:36:46.642Z,61.60
2018-07-15T03:37:48.879Z,61.60
2018-07-15T03:38:51.114Z,61.60
2018-07-15T03:39:53.391Z,61.60
2018-07-15T03:40:55.607Z,61.50
2018-07-15T03:41:57.844Z,61.80
2018-07-15T03:43:00.081Z,62.10
2018-07-15T03:44:02.278Z,61.70
2018-07-15T03:45:04.573Z,61.90
2018-07-15T03:46:07.142Z,62.00
2018-07-15T03:47:09.377Z,62.80
2018-07-15T03:48:11.595Z,62.60
2018-07-15T03:49:13.871Z,62.60
2018-07-15T03:50:16.113Z,62.50
2018-07-15T03:51:18.359Z,62.80
2018-07-15T03:52:20.611Z,63.10
2018-07-15T03:53:22.842Z,63.10
2018-07-15T03:54:25.118Z,63.20
2018-07-15T03:55:27.399Z,63.90
2018-07-15T03:56:29.672Z,63.00
2018-07-15T03:57:31.886Z,63.00
2018-07-15T03:58:34.084Z,62.80
2018-07-15T03:59:36.331Z,62.60
2018-07-15T04:00:38.587Z,63.60
2018-07-15T04:01:40.795Z,62.90
2018-07-15T04:02:43.016Z,63.20
2018-07-15T04:03:45.278Z,63.00
2018-07-15T04:04:47.502Z,62.50
2018-07-15T04:05:49.712Z,62.30
2018-07-15T04:06:51.958Z,62.30
2018-07-15T04:07:54.205Z,62.60
2018-07-15T04:08:56.473Z,62.60
2018-07-15T04:09:58.693Z,62.50
2018-07-15T04:11:00.957Z,62.60
2018-07-15T04:12:03.219Z,62.70
2018-07-15T04:13:05.442Z,63.60
2018-07-15T04:14:07.674Z,62.70
2018-07-15T04:15:09.890Z,63.10
2018-07-15T04:16:12.155Z,63.20
2018-07-15T04:17:14.352Z,63.50
2018-07-15T04:18:16.562Z,63.50
2018-07-15T04:20:21.033Z,63.50
2018-07-15T04:22:25.533Z,63.50
2018-07-15T04:23:27.762Z,63.50
2018-07-15T04:24:30.008Z,63.50
2018-07-15T04:25:33.047Z,63.50
2018-07-15T04:26:35.281Z,63.50
2018-07-15T04:27:37.546Z,63.50
2018-07-15T04:28:39.781Z,63.60
2018-07-15T04:29:41.989Z,63.60
2018-07-15T04:31:46.436Z,63.70
2018-07-15T04:32:48.645Z,63.60
2018-07-15T04:33:50.855Z,63.50
2018-07-15T04:34:53.054Z,63.30
2018-07-15T04:35:55.270Z,63.20
2018-07-15T04:37:04.234Z,63.20
2018-07-15T04:38:07.421Z,63.40
2018-07-15T04:39:09.917Z,63.30
2018-07-15T04:40:12.159Z,63.50
2018-07-15T04:41:14.330Z,63.40
2018-07-15T04:42:16.526Z,63.60
2018-07-15T04:43:18.754Z,63.50
2018-07-15T04:44:20.974Z,63.50
2018-07-15T04:45:23.218Z,63.00
2018-07-15T04:46:25.438Z,62.90
2018-07-15T04:47:27.650Z,63.10
2018-07-15T04:48:29.889Z,63.50
2018-07-15T04:49:32.086Z,63.30
2018-07-15T04:50:34.266Z,63.50
2018-07-15T04:51:36.580Z,63.50
2018-07-15T04:52:38.815Z,63.40
2018-07-15T04:54:43.330Z,63.00
2018-07-15T04:55:45.554Z,63.20
2018-07-15T04:56:47.789Z,63.20
2018-07-15T04:57:49.978Z,63.30
2018-07-15T04:58:52.231Z,63.40
2018-07-15T04:59:54.859Z,63.40
2018-07-15T05:00:57.077Z,63.30
2018-07-15T05:01:59.299Z,63.30
2018-07-15T05:03:01.509Z,64.10
2018-07-15T05:04:04.168Z,63.30
2018-07-15T05:05:06.546Z,63.60
2018-07-15T05:06:08.733Z,63.80
2018-07-15T05:07:17.870Z,63.80
2018-07-15T05:08:20.136Z,64.10
2018-07-15T05:09:22.338Z,64.40
2018-07-15T05:10:24.578Z,64.60
2018-07-15T05:11:26.788Z,64.30
2018-07-15T05:12:29.046Z,64.10
2018-07-15T05:13:31.316Z,63.80
2018-07-15T05:14:33.497Z,63.80
2018-07-15T05:15:35.715Z,64.00
2018-07-15T05:16:38.050Z,64.20
2018-07-15T05:17:40.261Z,64.10
2018-07-15T05:18:42.522Z,65.00
2018-07-15T05:19:44.727Z,63.90
2018-07-15T05:20:46.945Z,64.10
2018-07-15T05:22:51.429Z,64.40
2018-07-15T05:23:53.674Z,63.60
2018-07-15T05:26:04.967Z,63.80
2018-07-15T05:27:07.248Z,63.70
2018-07-15T05:28:09.450Z,63.60
2018-07-15T05:29:11.679Z,63.40
2018-07-15T05:30:13.927Z,63.40
2018-07-15T05:31:16.174Z,62.80
2018-07-15T05:32:18.408Z,63.50
2018-07-15T05:33:20.667Z,63.50
2018-07-15T05:34:22.900Z,63.50
2018-07-15T05:35:25.187Z,63.50
2018-07-15T05:36:27.410Z,63.50
2018-07-15T05:37:29.655Z,63.60
2018-07-15T05:38:31.899Z,63.20
2018-07-15T05:39:34.269Z,63.20
2018-07-15T05:40:36.517Z,62.90
2018-07-15T05:41:38.739Z,62.80
2018-07-15T05:42:40.979Z,62.80
2018-07-15T05:43:43.234Z,62.30
2018-07-15T05:45:47.682Z,62.10
2018-07-15T05:46:49.977Z,61.90
2018-07-15T05:47:52.215Z,61.90
2018-07-15T05:48:54.457Z,61.60
2018-07-15T05:49:56.678Z,61.70
2018-07-15T05:50:58.888Z,61.20
2018-07-15T05:52:01.111Z,61.20
2018-07-15T05:53:03.383Z,61.00
2018-07-15T05:55:14.905Z,60.60
2018-07-15T05:56:17.156Z,60.20
2018-07-15T05:57:19.365Z,59.90
2018-07-15T05:58:21.564Z,60.00
2018-07-15T06:00:26.027Z,60.00
2018-07-15T06:01:28.294Z,59.60
2018-07-15T06:03:32.829Z,59.00
2018-07-15T06:04:35.073Z,58.90
2018-07-15T06:06:39.599Z,58.50
2018-07-15T06:07:41.856Z,58.30
2018-07-15T06:09:46.363Z,58.00
2018-07-15T06:10:48.713Z,58.00
2018-07-15T06:11:50.845Z,57.70
2018-07-15T06:12:53.055Z,57.30
2018-07-15T06:13:55.257Z,57.10
2018-07-15T06:14:57.511Z,57.10
2018-07-15T06:15:59.776Z,57.20
2018-07-15T06:17:02.118Z,56.80
2018-07-15T06:18:04.498Z,56.80
2018-07-15T06:19:06.724Z,56.80
2018-07-15T06:21:11.279Z,57.00
2018-07-15T06:22:13.722Z,57.00
2018-07-15T06:23:16.074Z,57.00
2018-07-15T06:24:18.571Z,56.90
2018-07-15T06:25:20.804Z,57.00
2018-07-15T06:26:23.010Z,56.70
2018-07-15T06:27:25.253Z,56.30
2018-07-15T06:28:27.482Z,55.70
2018-07-15T06:29:29.703Z,56.00
2018-07-15T06:30:31.935Z,56.00
2018-07-15T06:31:34.499Z,56.00
2018-07-15T06:32:36.791Z,55.40
2018-07-15T06:33:39.004Z,55.80
2018-07-15T06:34:41.259Z,55.80
2018-07-15T06:35:43.464Z,55.80
2018-07-15T06:36:45.654Z,55.20
2018-07-15T06:37:47.873Z,55.10
2018-07-15T06:38:50.092Z,55.10
2018-07-15T06:39:52.319Z,54.90
2018-07-15T06:41:56.778Z,55.00
2018-07-15T06:42:59.052Z,55.00
2018-07-15T06:44:01.271Z,54.80
2018-07-15T06:45:03.566Z,54.80
2018-07-15T06:46:05.798Z,54.40
2018-07-15T06:47:08.007Z,54.20
2018-07-15T06:48:10.228Z,54.50
2018-07-15T06:49:12.493Z,54.80
2018-07-15T06:50:14.619Z,54.80
2018-07-15T06:51:16.858Z,54.50
2018-07-15T06:52:19.149Z,54.00
2018-07-15T06:53:21.371Z,54.10
2018-07-15T06:54:23.595Z,53.80
2018-07-15T06:56:28.091Z,54.20
2018-07-15T06:57:30.330Z,53.50
2018-07-15T06:59:34.914Z,54.00
2018-07-15T07:00:37.193Z,54.00
2018-07-15T07:01:39.530Z,53.90
2018-07-15T07:03:43.958Z,54.00
2018-07-15T07:04:46.211Z,54.10
2018-07-15T07:05:48.422Z,53.50
2018-07-15T07:06:50.667Z,53.70
2018-07-15T07:08:55.255Z,54.20
2018-07-15T07:09:57.522Z,54.10
2018-07-15T07:10:59.786Z,54.00
2018-07-15T07:12:02.025Z,54.10
2018-07-15T07:13:04.372Z,54.20
2018-07-15T07:14:07.113Z,54.10
2018-07-15T07:15:09.322Z,54.20
2018-07-15T07:16:11.621Z,54.20
2018-07-15T07:17:13.960Z,53.80
2018-07-15T07:18:16.186Z,54.00
2018-07-15T07:19:18.361Z,53.80
2018-07-15T07:20:20.567Z,54.40
2018-07-15T07:21:22.799Z,54.20
2018-07-15T07:23:27.183Z,54.20
2018-07-15T07:24:29.385Z,53.60
2018-07-15T07:25:31.577Z,53.70
2018-07-15T07:26:33.762Z,53.70
2018-07-15T07:27:35.987Z,53.70
2018-07-15T07:29:44.259Z,53.60
2018-07-15T07:30:46.447Z,53.70
2018-07-15T07:31:48.710Z,53.20
2018-07-15T07:32:50.946Z,53.60
2018-07-15T07:33:53.214Z,53.80
2018-07-15T07:34:55.434Z,53.20
2018-07-15T07:35:57.680Z,53.10
2018-07-15T07:38:02.152Z,53.10
2018-07-15T07:39:04.723Z,53.20
2018-07-15T07:40:06.930Z,53.10
2018-07-15T07:41:09.252Z,53.10
2018-07-15T07:43:13.766Z,52.80
2018-07-15T07:44:15.988Z,52.70
2018-07-15T07:45:18.299Z,52.30
2018-07-15T07:46:20.540Z,52.30
2018-07-15T07:47:22.766Z,52.40
2018-07-15T07:48:25.013Z,52.20
2018-07-15T07:49:27.279Z,52.20
2018-07-15T07:50:29.607Z,52.40
2018-07-15T07:51:31.827Z,52.50
2018-07-15T07:52:34.047Z,52.10
2018-07-15T07:53:36.331Z,52.20
2018-07-15T07:54:38.655Z,52.50
2018-07-15T07:55:40.880Z,52.20
2018-07-15T07:56:48.458Z,52.60
2018-07-15T07:57:50.717Z,52.10
2018-07-15T07:58:52.946Z,52.30
2018-07-15T07:59:55.149Z,52.40
2018-07-15T08:01:59.799Z,52.40
2018-07-15T08:03:01.934Z,52.20
2018-07-15T08:05:06.455Z,52.20
2018-07-15T08:06:08.639Z,52.00
2018-07-15T08:07:10.913Z,52.00
2018-07-15T08:08:13.137Z,51.80
2018-07-15T08:09:15.387Z,51.80
2018-07-15T08:10:17.701Z,51.80
2018-07-15T08:11:19.942Z,52.80
2018-07-15T08:13:24.430Z,51.00
2018-07-15T08:14:27.093Z,51.40
2018-07-15T08:15:29.443Z,51.80
2018-07-15T08:16:31.643Z,52.10
2018-07-15T08:17:33.907Z,51.70
2018-07-15T08:18:36.102Z,51.30
2018-07-15T08:19:38.318Z,51.00
2018-07-15T08:20:41.569Z,51.00
2018-07-15T08:21:44.160Z,51.00
2018-07-15T08:22:46.389Z,50.70
2018-07-15T08:23:48.662Z,50.50
2018-07-15T08:24:50.855Z,50.60
2018-07-15T08:25:53.251Z,50.60
2018-07-15T08:26:56.131Z,50.80
2018-07-15T08:27:58.362Z,50.70
2018-07-15T08:29:00.567Z,50.40
2018-07-15T08:30:14.218Z,50.50
2018-07-15T08:31:17.821Z,50.60
2018-07-15T08:32:20.049Z,50.60
2018-07-15T08:33:22.259Z,50.70
2018-07-15T08:34:24.505Z,50.80
2018-07-15T08:35:26.767Z,50.70
2018-07-15T08:36:28.943Z,50.60
2018-07-15T08:37:31.209Z,50.50
2018-07-15T08:38:33.454Z,50.40
2018-07-15T08:39:35.698Z,50.40
2018-07-15T08:40:37.938Z,50.40
2018-07-15T08:41:40.058Z,50.90
2018-07-15T08:42:42.246Z,51.00
2018-07-15T08:43:44.496Z,50.90
2018-07-15T08:45:48.890Z,50.40
2018-07-15T08:46:51.074Z,50.30
2018-07-15T08:47:53.310Z,50.30
2018-07-15T08:48:55.510Z,50.00
2018-07-15T08:49:57.730Z,50.20
2018-07-15T08:50:59.983Z,50.40
2018-07-15T08:52:02.186Z,50.40
2018-07-15T08:54:06.709Z,50.40
2018-07-15T08:55:08.933Z,50.10
2018-07-15T08:57:13.386Z,50.20
2018-07-15T08:58:15.604Z,50.10
2018-07-15T08:59:17.799Z,50.10
2018-07-15T09:00:19.982Z,49.80
2018-07-15T09:01:22.189Z,49.70
2018-07-15T09:02:24.376Z,49.30
2018-07-15T09:03:26.565Z,49.50
2018-07-15T09:04:28.807Z,49.40
2018-07-15T09:05:31.035Z,49.30
2018-07-15T09:07:35.483Z,49.00
2018-07-15T09:08:37.712Z,49.10
2018-07-15T09:09:39.899Z,49.00
2018-07-15T09:10:42.097Z,49.20
2018-07-15T09:11:44.273Z,48.80
2018-07-15T09:13:48.897Z,48.80
2018-07-15T09:14:51.143Z,48.60
2018-07-15T09:15:53.340Z,48.60
2018-07-15T09:16:55.546Z,48.80
2018-07-15T09:17:57.727Z,48.30
2018-07-15T09:18:59.979Z,48.30
2018-07-15T09:20:02.264Z,48.50
2018-07-15T09:21:04.424Z,48.10
2018-07-15T09:22:06.643Z,48.10
2018-07-15T09:23:08.842Z,48.10
2018-07-15T09:24:11.088Z,47.90
2018-07-15T09:25:13.306Z,47.90
2018-07-15T09:26:15.527Z,47.80
2018-07-15T09:28:19.943Z,47.90
2018-07-15T09:30:24.340Z,46.70
2018-07-15T09:31:26.542Z,46.50
2018-07-15T09:32:28.754Z,47.10
2018-07-15T09:33:31.021Z,47.10
2018-07-15T09:34:33.239Z,46.80
2018-07-15T09:35:35.465Z,47.10
2018-07-15T09:36:37.643Z,47.20
2018-07-15T09:37:39.862Z,47.00
2018-07-15T09:38:42.055Z,46.90
2018-07-15T09:39:44.273Z,47.40
2018-07-15T09:40:46.486Z,47.50
2018-07-15T09:41:48.687Z,47.40
2018-07-15T09:42:50.901Z,47.30
2018-07-15T09:43:53.116Z,47.40
2018-07-15T09:44:55.293Z,47.40
2018-07-15T09:45:57.467Z,47.40
2018-07-15T09:46:59.684Z,46.90
2018-07-15T09:48:01.889Z,46.80
2018-07-15T09:49:04.508Z,46.80
2018-07-15T09:50:06.715Z,46.80
2018-07-15T09:51:08.927Z,47.10
2018-07-15T09:52:11.150Z,46.80
2018-07-15T09:53:13.346Z,46.80
2018-07-15T09:54:15.554Z,46.80
2018-07-15T09:55:17.761Z,46.80
2018-07-15T09:56:19.979Z,46.80
2018-07-15T09:57:22.165Z,46.60
2018-07-15T09:58:24.485Z,46.30
2018-07-15T09:59:26.591Z,45.90
2018-07-15T10:00:34.403Z,45.00
2018-07-15T10:02:38.822Z,44.20
2018-07-15T10:04:43.257Z,44.00
2018-07-15T10:05:45.412Z,44.20
2018-07-15T10:06:47.578Z,44.90
2018-07-15T10:07:49.745Z,44.50
2018-07-15T10:08:51.974Z,44.60
2018-07-15T10:09:54.193Z,44.80
2018-07-15T10:10:56.387Z,44.30
2018-07-15T10:11:58.535Z,44.20
2018-07-15T10:15:18.155Z,44.00
2018-07-15T10:16:20.333Z,43.40
2018-07-15T10:17:22.503Z,43.10
2018-07-15T10:18:24.679Z,42.80
2018-07-15T10:19:26.835Z,42.20
2018-07-15T10:20:29.034Z,42.20
2018-07-15T10:21:31.263Z,42.40
2018-07-15T10:22:33.486Z,41.90
2018-07-15T10:23:35.679Z,41.50
2018-07-15T10:24:37.876Z,41.40
2018-07-15T10:25:40.114Z,40.80
2018-07-15T10:26:42.339Z,41.40
2018-07-15T10:27:44.494Z,41.50
2018-07-15T10:28:46.692Z,41.60
2018-07-15T10:29:51.286Z,41.20
2018-07-15T10:30:53.475Z,40.90
2018-07-15T10:31:55.716Z,41.40
2018-07-15T10:32:57.834Z,41.20
2018-07-15T10:34:00.010Z,41.40
2018-07-15T10:35:02.238Z,41.10
2018-07-15T10:36:04.439Z,41.40
2018-07-15T10:37:06.623Z,41.50
2018-07-15T10:39:11.554Z,41.50
2018-07-15T10:40:13.754Z,41.70
2018-07-15T10:41:15.958Z,42.00
2018-07-15T10:42:18.208Z,41.60
2018-07-15T10:43:20.387Z,41.30
2018-07-15T10:44:22.613Z,41.20
2018-07-15T10:45:24.810Z,41.50
2018-07-15T10:46:26.990Z,42.40
2018-07-15T10:47:29.174Z,42.00
2018-07-15T10:48:31.402Z,42.30
2018-07-15T10:49:33.581Z,42.30
2018-07-15T10:50:35.761Z,41.70
2018-07-15T10:51:37.934Z,41.50
2018-07-15T10:52:40.106Z,41.60
2018-07-15T10:53:42.301Z,41.90
2018-07-15T10:54:44.513Z,41.70
2018-07-15T10:55:46.714Z,41.80
2018-07-15T10:56:48.891Z,41.70
2018-07-15T10:57:51.179Z,41.80
2018-07-15T10:58:53.431Z,41.80
2018-07-15T11:00:57.864Z,41.70
2018-07-15T11:03:02.323Z,41.60
2018-07-15T11:04:04.551Z,41.90
2018-07-15T11:05:06.929Z,42.00
2018-07-15T11:06:09.147Z,42.00
2018-07-15T11:07:11.319Z,41.80
2018-07-15T11:08:13.537Z,42.10
2018-07-15T11:09:15.796Z,41.90
2018-07-15T11:10:17.996Z,42.10
2018-07-15T11:11:20.185Z,42.00
2018-07-15T11:12:22.410Z,42.00
2018-07-15T11:13:24.695Z,42.20
2018-07-15T11:14:26.860Z,42.20
2018-07-15T11:15:29.123Z,42.40
2018-07-15T11:17:33.568Z,42.40
2018-07-15T11:18:35.837Z,42.40
2018-07-15T11:19:38.062Z,42.10
2018-07-15T11:20:40.253Z,41.90
2018-07-15T11:21:42.454Z,42.50
2018-07-15T11:22:44.707Z,42.70
2018-07-15T11:24:49.151Z,42.60
2018-07-15T11:25:51.347Z,42.50
2018-07-15T11:26:53.558Z,42.70
2018-07-15T11:28:57.993Z,42.60
2018-07-15T11:30:00.174Z,41.70
2018-07-15T11:31:02.636Z,42.20
2018-07-15T11:32:04.657Z,42.20
2018-07-15T11:33:06.875Z,42.20
2018-07-15T11:34:09.032Z,41.90
2018-07-15T11:35:11.255Z,42.20
2018-07-15T11:37:15.616Z,42.10
2018-07-15T11:38:17.839Z,42.30
2018-07-15T11:39:20.026Z,42.70
2018-07-15T11:40:22.204Z,42.80
2018-07-15T11:41:24.389Z,42.80
2018-07-15T11:42:26.615Z,42.50
2018-07-15T11:43:28.791Z,42.60
2018-07-15T11:44:37.860Z,42.80
2018-07-15T11:45:40.084Z,42.60
2018-07-15T11:46:42.286Z,42.90
2018-07-15T11:47:44.461Z,42.50
2018-07-15T11:48:46.679Z,42.50
2018-07-15T11:49:48.866Z,42.60
2018-07-15T11:50:51.023Z,42.60
2018-07-15T11:51:53.182Z,42.70
2018-07-15T11:52:55.409Z,42.90
2018-07-15T11:53:57.587Z,43.10
2018-07-15T11:54:59.745Z,43.40
2018-07-15T11:57:04.281Z,43.10
2018-07-15T11:58:06.458Z,43.40
2018-07-15T11:59:08.663Z,43.10
2018-07-15T12:00:10.912Z,43.40
2018-07-15T12:01:13.087Z,44.30
2018-07-15T12:02:15.286Z,44.90
2018-07-15T12:03:17.802Z,45.50
2018-07-15T12:04:19.971Z,45.50
2018-07-15T12:05:22.173Z,46.50
2018-07-15T12:07:26.638Z,48.80
2018-07-15T12:08:28.822Z,48.60
2018-07-15T12:09:31.681Z,48.90
2018-07-15T12:10:33.934Z,49.60
2018-07-15T12:11:36.125Z,49.80
2018-07-15T12:12:38.314Z,50.40
2018-07-15T12:13:40.494Z,51.00
2018-07-15T12:14:42.717Z,51.20
2018-07-15T12:15:45.029Z,51.50
2018-07-15T12:16:47.206Z,52.00
2018-07-15T12:17:49.426Z,52.10
2018-07-15T12:18:51.639Z,52.40
2018-07-15T12:20:00.760Z,52.40
2018-07-15T12:21:02.960Z,52.70
2018-07-15T12:22:05.263Z,53.70
2018-07-15T12:23:07.494Z,53.60
2018-07-15T12:25:11.976Z,54.20
2018-07-15T12:26:14.155Z,54.70
2018-07-15T12:27:16.382Z,55.00
2018-07-15T12:29:20.753Z,55.50
2018-07-15T12:30:22.936Z,56.30
2018-07-15T12:31:25.114Z,56.00
2018-07-15T12:32:27.334Z,56.30
2018-07-15T12:33:29.564Z,56.30
2018-07-15T12:35:34.030Z,56.40
2018-07-15T12:36:36.218Z,56.70
2018-07-15T12:37:38.382Z,56.50
2018-07-15T12:38:40.557Z,56.80
2018-07-15T12:40:44.993Z,58.80
2018-07-15T12:41:47.166Z,58.80
2018-07-15T12:42:49.352Z,59.00
2018-07-15T12:44:53.884Z,59.10
2018-07-15T12:45:56.094Z,58.90
2018-07-15T12:46:58.325Z,59.60
2018-07-15T12:48:00.540Z,58.80
2018-07-15T12:49:02.800Z,59.40
2018-07-15T12:50:05.087Z,58.80
2018-07-15T12:51:07.310Z,60.30
2018-07-15T12:52:09.527Z,59.60
2018-07-15T12:53:11.698Z,57.80
2018-07-15T12:54:13.905Z,57.30
2018-07-15T12:55:16.082Z,57.80
2018-07-15T12:56:18.260Z,57.00
2018-07-15T12:57:20.407Z,57.10
2018-07-15T12:58:22.572Z,57.40
2018-07-15T12:59:24.752Z,58.50
2018-07-15T13:00:26.937Z,59.10
2018-07-15T13:01:29.175Z,59.20
2018-07-15T13:02:31.465Z,58.00
2018-07-15T13:04:35.891Z,58.00
2018-07-15T13:06:40.320Z,56.00
2018-07-15T13:07:42.510Z,53.70
2018-07-15T13:08:44.697Z,53.50
2018-07-15T13:09:46.914Z,53.60
2018-07-15T13:10:49.118Z,52.70
2018-07-15T13:11:51.327Z,51.10
2018-07-15T13:12:53.543Z,50.00
2018-07-15T13:13:55.745Z,51.00
2018-07-15T13:14:57.934Z,51.90
2018-07-15T13:16:00.155Z,51.30
2018-07-15T13:17:02.390Z,51.70
2018-07-15T13:18:04.574Z,50.90
2018-07-15T13:19:06.770Z,50.80
2018-07-15T13:20:08.954Z,50.90
2018-07-15T13:21:11.146Z,50.10
2018-07-15T13:22:13.346Z,49.40
2018-07-15T13:23:15.546Z,49.40
2018-07-15T13:24:17.763Z,47.50
2018-07-15T13:25:19.946Z,47.70
2018-07-15T13:26:22.094Z,47.90
2018-07-15T13:27:24.294Z,47.00
2018-07-15T13:28:26.486Z,45.70
2018-07-15T13:29:28.693Z,46.30
2018-07-15T13:30:30.943Z,43.40
2018-07-15T13:31:33.130Z,44.70
2018-07-15T13:32:35.312Z,43.50
2018-07-15T13:33:37.495Z,43.40
2018-07-15T13:34:39.713Z,42.40
2018-07-15T13:35:41.902Z,42.10
2018-07-15T13:36:44.116Z,42.40
2018-07-15T13:37:46.310Z,42.00
2018-07-15T13:38:48.500Z,41.80
2018-07-15T13:39:50.715Z,42.00
2018-07-15T13:41:55.245Z,41.40
2018-07-15T13:42:57.322Z,41.40
2018-07-15T13:43:59.534Z,41.00
2018-07-15T13:45:01.808Z,40.70
2018-07-15T13:46:04.113Z,40.60
2018-07-15T13:47:06.304Z,40.20
2018-07-15T13:49:10.751Z,38.00
2018-07-15T13:50:12.946Z,39.40
2018-07-15T13:51:15.177Z,37.40
2018-07-15T13:52:17.383Z,38.10
2018-07-15T13:53:19.579Z,38.60
2018-07-15T13:54:21.850Z,38.20
2018-07-15T13:55:24.074Z,38.60
2018-07-15T13:56:26.230Z,38.50
2018-07-15T13:57:28.453Z,38.80
2018-07-15T13:58:30.679Z,39.50
2018-07-15T14:00:35.119Z,40.10
2018-07-15T14:01:37.281Z,40.50
2018-07-15T14:02:39.468Z,40.40
2018-07-15T14:03:41.626Z,40.40
2018-07-15T14:04:43.831Z,39.90
2018-07-15T14:05:46.002Z,40.40
2018-07-15T14:06:48.227Z,40.30
2018-07-15T14:07:50.680Z,40.70
2018-07-15T14:08:52.891Z,40.90
2018-07-15T14:09:55.090Z,40.90
2018-07-15T14:10:57.262Z,40.90
2018-07-15T14:13:01.663Z,41.10
2018-07-15T14:14:03.878Z,41.40
2018-07-15T14:15:06.084Z,40.80
2018-07-15T14:16:08.290Z,40.80
2018-07-15T14:17:10.466Z,40.70
2018-07-15T14:18:12.659Z,40.30
2018-07-15T14:19:14.822Z,40.00
2018-07-15T14:20:17.050Z,41.30
2018-07-15T14:21:19.340Z,40.60
2018-07-15T14:22:21.427Z,40.90
2018-07-15T14:24:25.941Z,40.10
2018-07-15T14:25:28.114Z,40.40
2018-07-15T14:26:30.315Z,40.40
2018-07-15T14:27:32.481Z,40.60
2018-07-15T14:28:34.690Z,40.50
2018-07-15T14:29:36.885Z,39.40
2018-07-15T14:30:39.049Z,39.20
2018-07-15T14:31:41.227Z,39.90
2018-07-15T14:32:43.425Z,38.60
2018-07-15T14:33:45.622Z,39.30
2018-07-15T14:34:47.785Z,39.30
2018-07-15T14:35:49.947Z,39.40
2018-07-15T14:36:52.114Z,39.10
2018-07-15T14:37:54.361Z,39.10
2018-07-15T14:38:56.503Z,38.60
2018-07-15T14:39:58.675Z,37.80
2018-07-15T14:41:00.888Z,37.70